sensor_id;sensor_type;location;lat;lon;timestamp;pressure;altitude;pressure_sealevel;temperature;humidity
63808;BME280;49961;43.970;22.868;2023-10-31T00:00:29;101502.19;;;11.69;100.00
63808;BME280;49961;43.970;22.868;2023-10-31T00:01:30;101495.50;;;11.67;100.00
63808;BME280;49961;43.970;22.868;2023-10-31T00:02:30;101484.13;;;11.58;100.00
63808;BME280;49961;43.970;22.868;2023-10-31T00:03:31;101493.16;;;11.65;100.00
63808;BME280;49961;43.970;22.868;2023-10-31T00:04:32;101457.75;;;11.43;100.00
63808;BME280;49961;43.970;22.868;2023-10-31T00:05:32;101492.31;;;11.68;100.00
63808;BME280;49961;43.970;22.868;2023-10-31T00:06:33;101494.66;;;11.70;100.00
63808;BME280;49961;43.970;22.868;2023-10-31T00:07:33;101496.25;;;11.71;100.00
63808;BME280;49961;43.970;22.868;2023-10-31T00:08:33;101496.25;;;11.71;100.00
63808;BME280;49961;43.970;22.868;2023-10-31T00:09:34;101490.28;;;11.72;100.00
63808;BME280;49961;43.970;22.868;2023-10-31T00:10:34;101491.06;;;11.73;100.00
63808;BME280;49961;43.970;22.868;2023-10-31T00:11:35;101489.06;;;11.73;100.00
63808;BME280;49961;43.970;22.868;2023-10-31T00:12:35;101354.75;;;10.84;100.00
63808;BME280;49961;43.970;22.868;2023-10-31T00:13:35;101461.53;;;11.56;100.00
63808;BME280;49961;43.970;22.868;2023-10-31T00:14:36;101491.84;;;11.73;100.00
63808;BME280;49961;43.970;22.868;2023-10-31T00:15:36;101368.84;;;10.97;100.00
63808;BME280;49961;43.970;22.868;2023-10-31T00:16:37;101492.63;;;11.74;100.00
63808;BME280;49961;43.970;22.868;2023-10-31T00:17:37;101486.66;;;11.75;100.00
63808;BME280;49961;43.970;22.868;2023-10-31T00:18:38;101475.25;;;11.70;100.00
63808;BME280;49961;43.970;22.868;2023-10-31T00:19:38;101487.84;;;11.74;100.00
63808;BME280;49961;43.970;22.868;2023-10-31T00:20:39;101481.94;;;11.72;100.00
63808;BME280;49961;43.970;22.868;2023-10-31T00:21:39;101487.50;;;11.72;100.00
63808;BME280;49961;43.970;22.868;2023-10-31T00:22:40;101486.34;;;11.70;100.00
63808;BME280;49961;43.970;22.868;2023-10-31T00:23:47;101483.63;;;11.66;100.00
63808;BME280;49961;43.970;22.868;2023-10-31T00:24:47;101473.00;;;11.58;100.00
63808;BME280;49961;43.970;22.868;2023-10-31T00:25:48;101474.31;;;11.50;100.00
63808;BME280;49961;43.970;22.868;2023-10-31T00:27:07;101477.94;;;11.47;100.00
63808;BME280;49961;43.970;22.868;2023-10-31T00:28:07;101471.16;;;11.48;100.00
63808;BME280;49961;43.970;22.868;2023-10-31T00:29:07;101414.22;;;11.10;100.00
63808;BME280;49961;43.970;22.868;2023-10-31T00:30:08;101475.41;;;11.56;100.00
63808;BME280;49961;43.970;22.868;2023-10-31T00:31:09;101484.16;;;11.54;100.00
63808;BME280;49961;43.970;22.868;2023-10-31T00:32:11;101476.97;;;11.57;100.00
63808;BME280;49961;43.970;22.868;2023-10-31T00:33:12;101473.41;;;11.60;100.00
63808;BME280;49961;43.970;22.868;2023-10-31T00:34:12;101468.63;;;11.57;100.00
63808;BME280;49961;43.970;22.868;2023-10-31T00:35:12;101474.91;;;11.64;100.00
63808;BME280;49961;43.970;22.868;2023-10-31T00:36:13;101476.97;;;11.60;100.00
63808;BME280;49961;43.970;22.868;2023-10-31T00:37:13;101468.19;;;11.62;100.00
63808;BME280;49961;43.970;22.868;2023-10-31T00:38:14;101476.53;;;11.62;100.00
63808;BME280;49961;43.970;22.868;2023-10-31T00:39:14;101478.53;;;11.61;100.00
63808;BME280;49961;43.970;22.868;2023-10-31T00:40:15;101480.91;;;11.63;100.00
63808;BME280;49961;43.970;22.868;2023-10-31T00:41:16;101481.63;;;11.67;100.00
63808;BME280;49961;43.970;22.868;2023-10-31T00:42:17;101483.63;;;11.66;100.00
63808;BME280;49961;43.970;22.868;2023-10-31T00:43:17;101483.22;;;11.68;100.00
63808;BME280;49961;43.970;22.868;2023-10-31T00:44:17;101467.50;;;11.54;100.00
63808;BME280;49961;43.970;22.868;2023-10-31T00:45:19;101424.66;;;11.29;100.00
63808;BME280;49961;43.970;22.868;2023-10-31T00:46:19;101469.81;;;11.59;100.00
63808;BME280;49961;43.970;22.868;2023-10-31T00:47:20;101455.66;;;11.50;100.00
63808;BME280;49961;43.970;22.868;2023-10-31T00:48:20;101477.78;;;11.57;100.00
63808;BME280;49961;43.970;22.868;2023-10-31T00:49:21;101473.44;;;11.56;100.00
63808;BME280;49961;43.970;22.868;2023-10-31T00:50:21;101460.47;;;11.46;100.00
63808;BME280;49961;43.970;22.868;2023-10-31T00:51:21;101408.19;;;11.15;100.00
63808;BME280;49961;43.970;22.868;2023-10-31T00:52:22;101473.47;;;11.53;100.00
63808;BME280;49961;43.970;22.868;2023-10-31T00:53:22;101475.47;;;11.52;100.00
63808;BME280;49961;43.970;22.868;2023-10-31T00:54:23;101478.25;;;11.52;100.00
63808;BME280;49961;43.970;22.868;2023-10-31T00:55:23;101462.47;;;11.46;100.00
63808;BME280;49961;43.970;22.868;2023-10-31T00:56:25;101469.56;;;11.50;100.00
63808;BME280;49961;43.970;22.868;2023-10-31T00:57:25;101475.09;;;11.50;100.00
63808;BME280;49961;43.970;22.868;2023-10-31T00:58:25;101482.22;;;11.51;100.00
63808;BME280;49961;43.970;22.868;2023-10-31T00:59:26;101332.50;;;10.58;100.00
63808;BME280;49961;43.970;22.868;2023-10-31T01:00:26;101471.94;;;11.48;100.00
63808;BME280;49961;43.970;22.868;2023-10-31T01:01:27;101473.16;;;11.47;100.00
63808;BME280;49961;43.970;22.868;2023-10-31T01:02:27;101469.59;;;11.47;100.00
63808;BME280;49961;43.970;22.868;2023-10-31T01:03:27;101465.28;;;11.42;100.00
63808;BME280;49961;43.970;22.868;2023-10-31T01:04:28;101450.03;;;11.27;100.00
63808;BME280;49961;43.970;22.868;2023-10-31T01:05:29;101465.28;;;11.42;100.00
63808;BME280;49961;43.970;22.868;2023-10-31T01:06:29;101477.19;;;11.43;100.00
63808;BME280;49961;43.970;22.868;2023-10-31T01:07:30;101453.19;;;11.29;100.00
63808;BME280;49961;43.970;22.868;2023-10-31T01:08:30;101381.44;;;10.71;100.00
63808;BME280;49961;43.970;22.868;2023-10-31T01:09:30;101470.56;;;11.33;100.00
63808;BME280;49961;43.970;22.868;2023-10-31T01:10:31;101444.22;;;11.18;100.00
63808;BME280;49961;43.970;22.868;2023-10-31T01:11:31;101471.41;;;11.30;100.00
63808;BME280;49961;43.970;22.868;2023-10-31T01:12:32;101469.84;;;11.29;100.00
63808;BME280;49961;43.970;22.868;2023-10-31T01:13:32;101463.16;;;11.27;100.00
63808;BME280;49961;43.970;22.868;2023-10-31T01:14:33;101464.78;;;11.21;100.00
63808;BME280;49961;43.970;22.868;2023-10-31T01:15:33;101458.47;;;11.20;100.00
63808;BME280;49961;43.970;22.868;2023-10-31T01:16:34;101458.06;;;11.18;100.00
63808;BME280;49961;43.970;22.868;2023-10-31T01:17:34;101450.22;;;11.13;100.00
63808;BME280;49961;43.970;22.868;2023-10-31T01:18:35;101453.00;;;11.13;100.00
63808;BME280;49961;43.970;22.868;2023-10-31T01:19:35;101451.88;;;11.07;100.00
63808;BME280;49961;43.970;22.868;2023-10-31T01:20:36;101452.72;;;11.04;100.00
63808;BME280;49961;43.970;22.868;2023-10-31T01:21:36;101429.91;;;10.90;100.00
63808;BME280;49961;43.970;22.868;2023-10-31T01:22:36;101452.09;;;10.93;100.00
63808;BME280;49961;43.970;22.868;2023-10-31T01:23:37;101455.34;;;10.85;100.00
63808;BME280;49961;43.970;22.868;2023-10-31T01:24:37;101407.16;;;10.38;100.00
63808;BME280;49961;43.970;22.868;2023-10-31T01:25:38;101461.41;;;10.73;100.00
63808;BME280;49961;43.970;22.868;2023-10-31T01:26:38;101460.63;;;10.72;100.00
63808;BME280;49961;43.970;22.868;2023-10-31T01:27:38;101462.63;;;10.72;100.00
63808;BME280;49961;43.970;22.868;2023-10-31T01:28:39;101455.91;;;10.69;100.00
63808;BME280;49961;43.970;22.868;2023-10-31T01:29:39;101400.97;;;10.27;100.00
63808;BME280;49961;43.970;22.868;2023-10-31T01:30:40;101456.69;;;10.70;100.00
63808;BME280;49961;43.970;22.868;2023-10-31T01:31:43;101453.16;;;10.69;100.00
63808;BME280;49961;43.970;22.868;2023-10-31T01:32:43;101441.75;;;10.60;100.00
63808;BME280;49961;43.970;22.868;2023-10-31T01:33:45;101438.53;;;10.65;100.00
63808;BME280;49961;43.970;22.868;2023-10-31T01:34:45;101435.34;;;10.67;100.00
63808;BME280;49961;43.970;22.868;2023-10-31T01:35:45;101442.56;;;10.61;100.00
63808;BME280;49961;43.970;22.868;2023-10-31T01:36:46;101449.72;;;10.58;100.00
63808;BME280;49961;43.970;22.868;2023-10-31T01:37:46;101437.47;;;10.56;100.00
63808;BME280;49961;43.970;22.868;2023-10-31T01:38:47;101446.59;;;10.53;100.00
63808;BME280;49961;43.970;22.868;2023-10-31T01:39:47;101442.25;;;10.52;100.00
63808;BME280;49961;43.970;22.868;2023-10-31T01:40:49;101441.09;;;10.49;100.00
63808;BME280;49961;43.970;22.868;2023-10-31T01:41:50;101378.59;;;10.08;100.00
63808;BME280;49961;43.970;22.868;2023-10-31T01:42:52;101414.72;;;10.34;100.00
63808;BME280;49961;43.970;22.868;2023-10-31T01:43:53;101426.47;;;10.45;100.00
63808;BME280;49961;43.970;22.868;2023-10-31T01:44:53;101408.81;;;10.32;100.00
63808;BME280;49961;43.970;22.868;2023-10-31T01:45:53;101440.28;;;10.52;100.00
63808;BME280;49961;43.970;22.868;2023-10-31T01:46:55;101441.84;;;10.53;100.00
63808;BME280;49961;43.970;22.868;2023-10-31T01:47:55;101277.09;;;9.47;100.00
63808;BME280;49961;43.970;22.868;2023-10-31T01:48:56;101437.13;;;10.50;100.00
63808;BME280;49961;43.970;22.868;2023-10-31T01:49:56;101446.63;;;10.49;100.00
63808;BME280;49961;43.970;22.868;2023-10-31T01:50:58;101448.19;;;10.50;100.00
63808;BME280;49961;43.970;22.868;2023-10-31T01:52:01;101340.44;;;9.82;100.00
63808;BME280;49961;43.970;22.868;2023-10-31T01:53:02;101443.47;;;10.51;100.00
63808;BME280;49961;43.970;22.868;2023-10-31T01:54:04;101451.78;;;10.51;100.00
63808;BME280;49961;43.970;22.868;2023-10-31T01:55:04;101440.69;;;10.51;100.00
63808;BME280;49961;43.970;22.868;2023-10-31T01:56:06;101443.06;;;10.52;100.00
63808;BME280;49961;43.970;22.868;2023-10-31T01:57:07;101440.66;;;10.54;100.00
63808;BME280;49961;43.970;22.868;2023-10-31T01:58:08;101437.88;;;10.54;100.00
63808;BME280;49961;43.970;22.868;2023-10-31T01:59:08;101440.25;;;10.56;100.00
63808;BME280;49961;43.970;22.868;2023-10-31T02:00:10;101436.66;;;10.55;100.00
63808;BME280;49961;43.970;22.868;2023-10-31T02:01:10;101436.25;;;10.57;100.00
63808;BME280;49961;43.970;22.868;2023-10-31T02:02:11;101435.47;;;10.56;100.00
63808;BME280;49961;43.970;22.868;2023-10-31T02:03:12;101436.66;;;10.55;100.00
63808;BME280;49961;43.970;22.868;2023-10-31T02:04:13;101434.31;;;10.54;100.00
63808;BME280;49961;43.970;22.868;2023-10-31T02:05:13;101439.06;;;10.53;100.00
63808;BME280;49961;43.970;22.868;2023-10-31T02:06:14;101437.06;;;10.54;100.00
63808;BME280;49961;43.970;22.868;2023-10-31T02:07:14;101443.41;;;10.54;100.00
63808;BME280;49961;43.970;22.868;2023-10-31T02:08:14;101437.06;;;10.54;100.00
63808;BME280;49961;43.970;22.868;2023-10-31T02:09:15;101439.06;;;10.53;100.00
63808;BME280;49961;43.970;22.868;2023-10-31T02:10:16;101433.53;;;10.53;100.00
63808;BME280;49961;43.970;22.868;2023-10-31T02:11:16;101442.25;;;10.52;100.00
63808;BME280;49961;43.970;22.868;2023-10-31T02:12:36;101429.19;;;10.52;100.00
63808;BME280;49961;43.970;22.868;2023-10-31T02:13:37;101409.53;;;10.40;100.00
63808;BME280;49961;43.970;22.868;2023-10-31T02:14:37;101429.19;;;10.52;100.00
63808;BME280;49961;43.970;22.868;2023-10-31T02:15:38;101418.88;;;10.53;100.00
63808;BME280;49961;43.970;22.868;2023-10-31T02:16:38;101428.75;;;10.54;100.00
63808;BME280;49961;43.970;22.868;2023-10-31T02:17:39;101421.25;;;10.54;100.00
63808;BME280;49961;43.970;22.868;2023-10-31T02:18:39;101387.03;;;10.34;100.00
63808;BME280;49961;43.970;22.868;2023-10-31T02:19:40;101425.22;;;10.53;100.00
63808;BME280;49961;43.970;22.868;2023-10-31T02:20:41;101422.81;;;10.55;100.00
63808;BME280;49961;43.970;22.868;2023-10-31T02:21:41;101419.28;;;10.55;100.00
63808;BME280;49961;43.970;22.868;2023-10-31T02:22:42;101422.81;;;10.55;100.00
63808;BME280;49961;43.970;22.868;2023-10-31T02:23:42;101412.19;;;10.50;100.00
63808;BME280;49961;43.970;22.868;2023-10-31T02:24:43;101400.06;;;10.34;100.00
63808;BME280;49961;43.970;22.868;2023-10-31T02:25:43;101417.75;;;10.47;100.00
63808;BME280;49961;43.970;22.868;2023-10-31T02:26:43;101437.88;;;10.54;100.00
63808;BME280;49961;43.970;22.868;2023-10-31T02:27:44;101428.81;;;10.50;100.00
63808;BME280;49961;43.970;22.868;2023-10-31T02:28:45;101427.69;;;10.44;100.00
63808;BME280;49961;43.970;22.868;2023-10-31T02:29:45;101421.03;;;10.38;100.00
63808;BME280;49961;43.970;22.868;2023-10-31T02:30:45;101409.13;;;10.38;100.00
63808;BME280;49961;43.970;22.868;2023-10-31T02:31:46;101402.84;;;10.34;100.00
63808;BME280;49961;43.970;22.868;2023-10-31T02:32:46;101403.66;;;10.34;100.00
63808;BME280;49961;43.970;22.868;2023-10-31T02:33:47;101342.31;;;9.92;100.00
63808;BME280;49961;43.970;22.868;2023-10-31T02:34:47;101394.97;;;10.32;100.00
63808;BME280;49961;43.970;22.868;2023-10-31T02:35:48;101398.91;;;10.31;100.00
63808;BME280;49961;43.970;22.868;2023-10-31T02:36:48;101397.03;;;10.25;100.00
63808;BME280;49961;43.970;22.868;2023-10-31T02:37:49;101402.56;;;10.25;100.00
63808;BME280;49961;43.970;22.868;2023-10-31T02:38:49;101402.22;;;10.19;100.00
63808;BME280;49961;43.970;22.868;2023-10-31T02:39:50;101317.69;;;9.64;100.00
63808;BME280;49961;43.970;22.868;2023-10-31T02:40:50;101415.66;;;10.21;100.00
63808;BME280;49961;43.970;22.868;2023-10-31T02:41:51;101422.78;;;10.22;100.00
63808;BME280;49961;43.970;22.868;2023-10-31T02:42:51;101413.75;;;10.14;100.00
63808;BME280;49961;43.970;22.868;2023-10-31T02:43:52;101417.25;;;10.18;100.00
63808;BME280;49961;43.970;22.868;2023-10-31T02:44:55;101418.06;;;10.15;100.00
63808;BME280;49961;43.970;22.868;2023-10-31T02:45:55;101412.66;;;10.05;100.00
63808;BME280;49961;43.970;22.868;2023-10-31T02:46:56;101404.78;;;9.96;100.00
63808;BME280;49961;43.970;22.868;2023-10-31T02:47:56;101355.63;;;9.63;100.00
63808;BME280;49961;43.970;22.868;2023-10-31T02:48:56;101400.09;;;9.90;100.00
63808;BME280;49961;43.970;22.868;2023-10-31T02:49:57;101407.25;;;9.87;100.00
63808;BME280;49961;43.970;22.868;2023-10-31T02:50:57;101404.16;;;9.78;100.00
63808;BME280;49961;43.970;22.868;2023-10-31T02:51:58;101408.09;;;9.77;100.00
63808;BME280;49961;43.970;22.868;2023-10-31T02:52:58;101384.22;;;9.50;100.00
63808;BME280;49961;43.970;22.868;2023-10-31T02:53:59;101417.63;;;9.76;100.00
63808;BME280;49961;43.970;22.868;2023-10-31T02:54:59;101375.16;;;9.42;100.00
63808;BME280;49961;43.970;22.868;2023-10-31T02:56:00;101426.25;;;9.82;100.00
63808;BME280;49961;43.970;22.868;2023-10-31T02:57:00;101415.63;;;9.77;100.00
63808;BME280;49961;43.970;22.868;2023-10-31T02:58:00;101344.41;;;9.33;100.00
63808;BME280;49961;43.970;22.868;2023-10-31T02:59:01;101413.28;;;9.72;100.00
63808;BME280;49961;43.970;22.868;2023-10-31T03:00:02;101410.13;;;9.73;100.00
63808;BME280;49961;43.970;22.868;2023-10-31T03:01:03;101410.94;;;9.70;100.00
63808;BME280;49961;43.970;22.868;2023-10-31T03:02:03;101412.94;;;9.66;100.00
63808;BME280;49961;43.970;22.868;2023-10-31T03:03:04;101428.75;;;9.66;100.00
63808;BME280;49961;43.970;22.868;2023-10-31T03:04:05;101425.66;;;9.60;100.00
63808;BME280;49961;43.970;22.868;2023-10-31T03:05:06;101417.75;;;9.59;100.00
63808;BME280;49961;43.970;22.868;2023-10-31T03:06:06;101424.09;;;9.56;100.00
63808;BME280;49961;43.970;22.868;2023-10-31T03:07:07;101421.34;;;9.52;100.00
63808;BME280;49961;43.970;22.868;2023-10-31T03:08:07;101422.16;;;9.46;100.00
63808;BME280;49961;43.970;22.868;2023-10-31T03:09:10;101417.88;;;9.41;100.00
63808;BME280;49961;43.970;22.868;2023-10-31T03:10:11;101413.13;;;9.38;100.00
63808;BME280;49961;43.970;22.868;2023-10-31T03:11:21;101416.72;;;9.35;100.00
63808;BME280;49961;43.970;22.868;2023-10-31T03:12:21;101401.31;;;9.31;100.00
63808;BME280;49961;43.970;22.868;2023-10-31T03:13:21;101409.97;;;9.40;100.00
63808;BME280;49961;43.970;22.868;2023-10-31T03:14:22;101412.72;;;9.40;100.00
63808;BME280;49961;43.970;22.868;2023-10-31T03:15:23;101408.00;;;9.40;100.00
63808;BME280;49961;43.970;22.868;2023-10-31T03:16:24;101397.75;;;9.34;100.00
63808;BME280;49961;43.970;22.868;2023-10-31T03:17:24;101404.44;;;9.40;100.00
63808;BME280;49961;43.970;22.868;2023-10-31T03:18:25;101413.94;;;9.39;100.00
63808;BME280;49961;43.970;22.868;2023-10-31T03:19:26;101410.00;;;9.36;100.00
63808;BME280;49961;43.970;22.868;2023-10-31T03:20:27;101412.38;;;9.31;100.00
63808;BME280;49961;43.970;22.868;2023-10-31T03:21:27;101427.81;;;9.32;100.00
63808;BME280;49961;43.970;22.868;2023-10-31T03:22:28;101413.97;;;9.35;100.00
63808;BME280;49961;43.970;22.868;2023-10-31T03:23:28;101405.69;;;9.32;100.00
63808;BME280;49961;43.970;22.868;2023-10-31T03:24:28;101415.13;;;9.38;100.00
63808;BME280;49961;43.970;22.868;2023-10-31T03:25:29;101339.09;;;8.98;100.00
63808;BME280;49961;43.970;22.868;2023-10-31T03:26:29;101394.59;;;9.35;100.00
63808;BME280;49961;43.970;22.868;2023-10-31T03:27:30;101398.94;;;9.36;100.00
63808;BME280;49961;43.970;22.868;2023-10-31T03:28:30;101397.72;;;9.37;100.00
63808;BME280;49961;43.970;22.868;2023-10-31T03:29:30;101407.59;;;9.38;100.00
63808;BME280;49961;43.970;22.868;2023-10-31T03:30:31;101398.53;;;9.38;100.00
63808;BME280;49961;43.970;22.868;2023-10-31T03:31:31;101399.69;;;9.40;100.00
63808;BME280;49961;43.970;22.868;2023-10-31T03:32:31;101397.31;;;9.42;100.00
63808;BME280;49961;43.970;22.868;2023-10-31T03:33:32;101392.97;;;9.41;100.00
63808;BME280;49961;43.970;22.868;2023-10-31T03:34:32;101381.13;;;9.37;100.00
63808;BME280;49961;43.970;22.868;2023-10-31T03:35:33;101387.41;;;9.45;100.00
63808;BME280;49961;43.970;22.868;2023-10-31T03:36:33;101302.03;;;8.92;100.00
63808;BME280;49961;43.970;22.868;2023-10-31T03:37:33;101381.47;;;9.46;100.00
63808;BME280;49961;43.970;22.868;2023-10-31T03:38:35;101387.38;;;9.48;100.00
63808;BME280;49961;43.970;22.868;2023-10-31T03:39:35;101385.78;;;9.51;100.00
63808;BME280;49961;43.970;22.868;2023-10-31T03:40:36;101388.53;;;9.51;100.00
63808;BME280;49961;43.970;22.868;2023-10-31T03:41:36;101384.19;;;9.53;100.00
63808;BME280;49961;43.970;22.868;2023-10-31T03:42:37;101379.84;;;9.52;100.00
63808;BME280;49961;43.970;22.868;2023-10-31T03:43:37;101323.59;;;9.15;100.00
63808;BME280;49961;43.970;22.868;2023-10-31T03:44:37;101379.41;;;9.57;100.00
63808;BME280;49961;43.970;22.868;2023-10-31T03:45:38;101345.97;;;9.38;100.00
63808;BME280;49961;43.970;22.868;2023-10-31T03:46:38;101383.72;;;9.62;100.00
63808;BME280;49961;43.970;22.868;2023-10-31T03:47:39;101382.53;;;9.63;100.00
63808;BME280;49961;43.970;22.868;2023-10-31T03:48:39;101385.31;;;9.59;100.00
63808;BME280;49961;43.970;22.868;2023-10-31T03:49:40;101385.31;;;9.59;100.00
63808;BME280;49961;43.970;22.868;2023-10-31T03:50:41;101379.00;;;9.59;100.00
63808;BME280;49961;43.970;22.868;2023-10-31T03:51:41;101390.88;;;9.56;100.00
63808;BME280;49961;43.970;22.868;2023-10-31T03:52:41;101390.94;;;9.49;100.00
63808;BME280;49961;43.970;22.868;2023-10-31T03:53:42;101386.19;;;9.49;100.00
63808;BME280;49961;43.970;22.868;2023-10-31T03:54:42;101384.22;;;9.50;100.00
63808;BME280;49961;43.970;22.868;2023-10-31T03:55:43;101387.72;;;9.57;100.00
63808;BME280;49961;43.970;22.868;2023-10-31T03:56:43;101310.59;;;9.08;100.00
63808;BME280;49961;43.970;22.868;2023-10-31T03:57:44;101390.84;;;9.63;100.00
63808;BME280;49961;43.970;22.868;2023-10-31T03:58:44;101390.84;;;9.63;100.00
63808;BME280;49961;43.970;22.868;2023-10-31T03:59:45;101385.69;;;9.65;100.00
63808;BME280;49961;43.970;22.868;2023-10-31T04:00:45;101384.88;;;9.64;100.00
63808;BME280;49961;43.970;22.868;2023-10-31T04:01:45;101389.25;;;9.65;100.00
63808;BME280;49961;43.970;22.868;2023-10-31T04:02:46;101389.25;;;9.65;100.00
63808;BME280;49961;43.970;22.868;2023-10-31T04:03:46;101399.16;;;9.59;100.00
63808;BME280;49961;43.970;22.868;2023-10-31T04:04:47;101397.22;;;9.56;100.00
63808;BME280;49961;43.970;22.868;2023-10-31T04:05:47;101388.91;;;9.56;100.00
63808;BME280;49961;43.970;22.868;2023-10-31T04:06:47;101392.44;;;9.57;100.00
63808;BME280;49961;43.970;22.868;2023-10-31T04:07:48;101389.28;;;9.58;100.00
63808;BME280;49961;43.970;22.868;2023-10-31T04:08:49;101397.63;;;9.55;100.00
63808;BME280;49961;43.970;22.868;2023-10-31T04:09:49;101398.41;;;9.52;100.00
63808;BME280;49961;43.970;22.868;2023-10-31T04:10:50;101398.81;;;9.54;100.00
63808;BME280;49961;43.970;22.868;2023-10-31T04:11:50;101396.44;;;9.52;100.00
63808;BME280;49961;43.970;22.868;2023-10-31T04:12:50;101375.63;;;9.34;100.00
63808;BME280;49961;43.970;22.868;2023-10-31T04:13:51;101381.13;;;9.37;100.00
63808;BME280;49961;43.970;22.868;2023-10-31T04:14:51;101392.91;;;9.48;100.00
63808;BME280;49961;43.970;22.868;2023-10-31T04:15:52;101388.22;;;9.45;100.00
63808;BME280;49961;43.970;22.868;2023-10-31T04:16:52;101389.38;;;9.48;100.00
63808;BME280;49961;43.970;22.868;2023-10-31T04:17:53;101305.16;;;8.98;100.00
63808;BME280;49961;43.970;22.868;2023-10-31T04:18:53;101370.91;;;9.34;100.00
63808;BME280;49961;43.970;22.868;2023-10-31T04:19:53;101382.25;;;9.50;100.00
63808;BME280;49961;43.970;22.868;2023-10-31T04:20:54;101379.47;;;9.50;100.00
63808;BME280;49961;43.970;22.868;2023-10-31T04:21:54;101382.22;;;9.54;100.00
63808;BME280;49961;43.970;22.868;2023-10-31T04:22:55;101381.81;;;9.55;100.00
63808;BME280;49961;43.970;22.868;2023-10-31T04:23:55;101392.88;;;9.55;100.00
63808;BME280;49961;43.970;22.868;2023-10-31T04:24:55;101333.47;;;9.16;100.00
63808;BME280;49961;43.970;22.868;2023-10-31T04:25:56;101402.34;;;9.54;100.00
63808;BME280;49961;43.970;22.868;2023-10-31T04:26:56;101398.41;;;9.52;100.00
63808;BME280;49961;43.970;22.868;2023-10-31T04:27:57;101391.72;;;9.53;100.00
63808;BME280;49961;43.970;22.868;2023-10-31T04:28:58;101367.41;;;9.27;100.00
63808;BME280;49961;43.970;22.868;2023-10-31T04:29:58;101374.41;;;9.38;100.00
63808;BME280;49961;43.970;22.868;2023-10-31T04:30:58;101383.94;;;9.34;100.00
63808;BME280;49961;43.970;22.868;2023-10-31T04:31:59;101404.38;;;9.47;100.00
63808;BME280;49961;43.970;22.868;2023-10-31T04:32:59;101407.56;;;9.42;100.00
63808;BME280;49961;43.970;22.868;2023-10-31T04:34:00;101412.72;;;9.40;100.00
63808;BME280;49961;43.970;22.868;2023-10-31T04:35:00;101326.25;;;8.74;100.00
63808;BME280;49961;43.970;22.868;2023-10-31T04:36:00;101412.38;;;9.34;100.00
63808;BME280;49961;43.970;22.868;2023-10-31T04:37:02;101392.72;;;9.15;100.00
63808;BME280;49961;43.970;22.868;2023-10-31T04:38:02;101362.41;;;9.01;100.00
63808;BME280;49961;43.970;22.868;2023-10-31T04:39:03;101336.44;;;8.84;100.00
63808;BME280;49961;43.970;22.868;2023-10-31T04:40:04;101411.22;;;9.28;100.00
63808;BME280;49961;43.970;22.868;2023-10-31T04:41:05;101414.41;;;9.23;100.00
63808;BME280;49961;43.970;22.868;2023-10-31T04:42:05;101415.63;;;9.19;100.00
63808;BME280;49961;43.970;22.868;2023-10-31T04:43:06;101403.00;;;9.18;100.00
63808;BME280;49961;43.970;22.868;2023-10-31T04:44:07;101419.53;;;9.25;100.00
63808;BME280;49961;43.970;22.868;2023-10-31T04:45:08;101418.03;;;9.13;100.00
63808;BME280;49961;43.970;22.868;2023-10-31T04:46:08;101401.13;;;8.97;100.00
63808;BME280;49961;43.970;22.868;2023-10-31T04:47:09;101433.78;;;9.20;100.00
63808;BME280;49961;43.970;22.868;2023-10-31T04:48:09;101437.31;;;9.27;100.00
63808;BME280;49961;43.970;22.868;2023-10-31T04:49:09;101434.16;;;9.29;100.00
63808;BME280;49961;43.970;22.868;2023-10-31T04:50:10;101427.41;;;9.30;100.00
63808;BME280;49961;43.970;22.868;2023-10-31T04:51:10;101433.34;;;9.32;100.00
63808;BME280;49961;43.970;22.868;2023-10-31T04:52:11;101428.97;;;9.31;100.00
63808;BME280;49961;43.970;22.868;2023-10-31T04:53:12;101438.06;;;9.35;100.00
63808;BME280;49961;43.970;22.868;2023-10-31T04:54:12;101443.59;;;9.35;100.00
63808;BME280;49961;43.970;22.868;2023-10-31T04:55:13;101306.25;;;8.46;100.00
63808;BME280;49961;43.970;22.868;2023-10-31T04:56:15;101455.44;;;9.35;100.00
63808;BME280;49961;43.970;22.868;2023-10-31T04:57:15;101438.03;;;9.38;100.00
63808;BME280;49961;43.970;22.868;2023-10-31T04:58:16;101442.00;;;9.37;100.00
63808;BME280;49961;43.970;22.868;2023-10-31T04:59:16;101431.72;;;9.38;100.00
63808;BME280;49961;43.970;22.868;2023-10-31T05:00:17;101430.16;;;9.37;100.00
63808;BME280;49961;43.970;22.868;2023-10-31T05:01:18;101427.03;;;9.31;100.00
63808;BME280;49961;43.970;22.868;2023-10-31T05:02:21;101430.59;;;9.28;100.00
63808;BME280;49961;43.970;22.868;2023-10-31T05:03:21;101420.75;;;9.24;100.00
63808;BME280;49961;43.970;22.868;2023-10-31T05:04:22;101414.84;;;9.18;100.00
63808;BME280;49961;43.970;22.868;2023-10-31T05:05:22;101397.09;;;9.12;100.00
63808;BME280;49961;43.970;22.868;2023-10-31T05:06:22;101426.66;;;9.29;100.00
63808;BME280;49961;43.970;22.868;2023-10-31T05:07:23;101415.19;;;9.27;100.00
63808;BME280;49961;43.970;22.868;2023-10-31T05:08:24;101421.13;;;9.29;100.00
63808;BME280;49961;43.970;22.868;2023-10-31T05:09:24;101420.28;;;9.32;100.00
63808;BME280;49961;43.970;22.868;2023-10-31T05:10:24;101408.03;;;9.33;100.00
63808;BME280;49961;43.970;22.868;2023-10-31T05:11:25;101412.34;;;9.41;100.00